sensor_id;sensor_type;location;lat;lon;timestamp;pressure;altitude;pressure_sealevel;temperature;humidity
34034;BME280;63481;52.588;22.472;2023-03-15T00:01:02;98409.00;;;6.38;91.03
34034;BME280;63481;52.588;22.472;2023-03-15T00:01:55;98410.48;;;6.34;90.97
34034;BME280;63481;52.588;22.472;2023-03-15T00:02:48;98408.41;;;6.36;91.04
34034;BME280;63481;52.588;22.472;2023-03-15T00:03:41;98407.98;;;6.35;91.02
34034;BME280;63481;52.588;22.472;2023-03-15T00:04:34;98406.77;;;6.35;91.25
34034;BME280;63481;52.588;22.472;2023-03-15T00:05:28;98410.09;;;6.35;91.16
34034;BME280;63481;52.588;22.472;2023-03-15T00:06:21;98410.62;;;6.38;91.42
34034;BME280;63481;52.588;22.472;2023-03-15T00:07:15;98411.65;;;6.46;91.50
34034;BME280;63481;52.588;22.472;2023-03-15T00:08:08;98412.15;;;6.49;91.12
34034;BME280;63481;52.588;22.472;2023-03-15T00:09:01;98411.65;;;6.52;91.03
34034;BME280;63481;52.588;22.472;2023-03-15T00:09:54;98410.17;;;6.62;91.29
34034;BME280;63481;52.588;22.472;2023-03-15T00:10:47;98412.80;;;6.68;90.75
34034;BME280;63481;52.588;22.472;2023-03-15T00:11:40;98416.57;;;6.72;90.58
34034;BME280;63481;52.588;22.472;2023-03-15T00:12:33;98416.44;;;6.79;90.66
34034;BME280;63481;52.588;22.472;2023-03-15T00:13:26;98417.63;;;6.84;90.42
34034;BME280;63481;52.588;22.472;2023-03-15T00:14:20;98416.48;;;6.87;90.36
34034;BME280;63481;52.588;22.472;2023-03-15T00:15:13;98414.20;;;6.92;89.93
34034;BME280;63481;52.588;22.472;2023-03-15T00:16:07;98416.81;;;6.94;89.99
34034;BME280;63481;52.588;22.472;2023-03-15T00:17:03;98418.73;;;6.93;89.81
34034;BME280;63481;52.588;22.472;2023-03-15T00:17:56;98417.35;;;6.93;89.69
34034;BME280;63481;52.588;22.472;2023-03-15T00:18:49;98419.75;;;6.94;89.82
34034;BME280;63481;52.588;22.472;2023-03-15T00:19:43;98424.23;;;6.97;89.56
34034;BME280;63481;52.588;22.472;2023-03-15T00:20:36;98424.08;;;6.99;89.64
34034;BME280;63481;52.588;22.472;2023-03-15T00:21:30;98426.61;;;7.03;89.69
34034;BME280;63481;52.588;22.472;2023-03-15T00:22:23;98426.09;;;7.08;89.41
34034;BME280;63481;52.588;22.472;2023-03-15T00:23:17;98425.41;;;7.12;89.10
34034;BME280;63481;52.588;22.472;2023-03-15T00:24:11;98427.55;;;7.13;88.99
34034;BME280;63481;52.588;22.472;2023-03-15T00:25:05;98426.77;;;7.14;89.05
34034;BME280;63481;52.588;22.472;2023-03-15T00:25:58;98429.77;;;7.17;88.96
34034;BME280;63481;52.588;22.472;2023-03-15T00:26:52;98434.17;;;7.17;88.83
34034;BME280;63481;52.588;22.472;2023-03-15T00:27:46;98433.42;;;7.16;88.90
34034;BME280;63481;52.588;22.472;2023-03-15T00:28:39;98434.82;;;7.18;88.73
34034;BME280;63481;52.588;22.472;2023-03-15T00:29:32;98435.73;;;7.23;88.73
34034;BME280;63481;52.588;22.472;2023-03-15T00:30:27;98440.10;;;7.28;88.64
34034;BME280;63481;52.588;22.472;2023-03-15T00:31:23;98439.70;;;7.28;88.63
34034;BME280;63481;52.588;22.472;2023-03-15T00:32:16;98436.24;;;7.29;88.15
34034;BME280;63481;52.588;22.472;2023-03-15T00:33:13;98432.55;;;7.32;88.33
34034;BME280;63481;52.588;22.472;2023-03-15T00:34:06;98435.73;;;7.37;88.24
34034;BME280;63481;52.588;22.472;2023-03-15T00:34:59;98435.48;;;7.37;87.82
34034;BME280;63481;52.588;22.472;2023-03-15T00:35:53;98436.13;;;7.40;88.02
34034;BME280;63481;52.588;22.472;2023-03-15T00:36:46;98434.49;;;7.42;87.92
34034;BME280;63481;52.588;22.472;2023-03-15T00:37:39;98434.68;;;7.46;87.82
34034;BME280;63481;52.588;22.472;2023-03-15T00:38:34;98439.28;;;7.47;87.97
34034;BME280;63481;52.588;22.472;2023-03-15T00:39:27;98442.55;;;7.51;87.56
34034;BME280;63481;52.588;22.472;2023-03-15T00:40:19;98444.61;;;7.53;87.35
34034;BME280;63481;52.588;22.472;2023-03-15T00:41:15;98449.55;;;7.55;87.32
34034;BME280;63481;52.588;22.472;2023-03-15T00:42:08;98445.08;;;7.66;86.95
34034;BME280;63481;52.588;22.472;2023-03-15T00:43:01;98444.46;;;7.74;86.82
34034;BME280;63481;52.588;22.472;2023-03-15T00:43:55;98445.86;;;7.78;86.28
34034;BME280;63481;52.588;22.472;2023-03-15T00:44:49;98446.38;;;7.79;86.02
34034;BME280;63481;52.588;22.472;2023-03-15T00:45:42;98444.54;;;7.80;86.12
34034;BME280;63481;52.588;22.472;2023-03-15T00:46:37;98445.64;;;7.77;86.17
34034;BME280;63481;52.588;22.472;2023-03-15T00:47:30;98443.48;;;7.73;86.23
34034;BME280;63481;52.588;22.472;2023-03-15T00:48:23;98444.50;;;7.72;86.10
34034;BME280;63481;52.588;22.472;2023-03-15T00:49:17;98447.98;;;7.75;86.56
34034;BME280;63481;52.588;22.472;2023-03-15T00:50:11;98447.18;;;7.79;85.91
34034;BME280;63481;52.588;22.472;2023-03-15T00:51:06;98450.70;;;7.86;85.52
34034;BME280;63481;52.588;22.472;2023-03-15T00:52:00;98448.95;;;7.91;85.44
34034;BME280;63481;52.588;22.472;2023-03-15T00:52:53;98447.19;;;7.92;85.54
34034;BME280;63481;52.588;22.472;2023-03-15T00:53:47;98445.06;;;7.92;85.24
34034;BME280;63481;52.588;22.472;2023-03-15T00:54:41;98444.80;;;7.95;85.17
34034;BME280;63481;52.588;22.472;2023-03-15T00:55:36;98446.89;;;7.94;85.53
34034;BME280;63481;52.588;22.472;2023-03-15T00:56:29;98447.82;;;7.97;85.03
34034;BME280;63481;52.588;22.472;2023-03-15T00:57:23;98446.39;;;7.97;85.32
34034;BME280;63481;52.588;22.472;2023-03-15T00:58:17;98445.08;;;7.98;85.15
34034;BME280;63481;52.588;22.472;2023-03-15T00:59:10;98446.83;;;7.98;84.76
34034;BME280;63481;52.588;22.472;2023-03-15T01:00:05;98448.38;;;7.98;84.95
34034;BME280;63481;52.588;22.472;2023-03-15T01:00:59;98446.05;;;8.02;85.03
34034;BME280;63481;52.588;22.472;2023-03-15T01:01:53;98449.48;;;8.00;84.75
34034;BME280;63481;52.588;22.472;2023-03-15T01:02:49;98452.65;;;7.97;85.01
34034;BME280;63481;52.588;22.472;2023-03-15T01:03:43;98452.55;;;7.95;85.10
34034;BME280;63481;52.588;22.472;2023-03-15T01:04:36;98450.87;;;7.98;85.12
34034;BME280;63481;52.588;22.472;2023-03-15T01:05:30;98447.07;;;7.96;85.13
34034;BME280;63481;52.588;22.472;2023-03-15T01:06:26;98444.52;;;7.97;85.23
34034;BME280;63481;52.588;22.472;2023-03-15T01:07:19;98450.51;;;7.98;84.94
34034;BME280;63481;52.588;22.472;2023-03-15T01:08:13;98447.51;;;8.00;84.90
34034;BME280;63481;52.588;22.472;2023-03-15T01:09:08;98451.10;;;8.06;84.88
34034;BME280;63481;52.588;22.472;2023-03-15T01:10:01;98451.38;;;8.05;84.68
34034;BME280;63481;52.588;22.472;2023-03-15T01:10:55;98452.96;;;8.04;84.88
34034;BME280;63481;52.588;22.472;2023-03-15T01:11:47;98457.27;;;8.03;85.01
34034;BME280;63481;52.588;22.472;2023-03-15T01:12:41;98459.32;;;7.99;85.05
34034;BME280;63481;52.588;22.472;2023-03-15T01:13:38;98460.38;;;7.94;85.18
34034;BME280;63481;52.588;22.472;2023-03-15T01:14:31;98460.72;;;7.90;85.29
34034;BME280;63481;52.588;22.472;2023-03-15T01:15:27;98461.92;;;7.86;85.22
34034;BME280;63481;52.588;22.472;2023-03-15T01:16:20;98464.56;;;7.82;85.46
34034;BME280;63481;52.588;22.472;2023-03-15T01:17:14;98466.29;;;7.75;85.36
34034;BME280;63481;52.588;22.472;2023-03-15T01:18:07;98474.31;;;7.71;85.95
34034;BME280;63481;52.588;22.472;2023-03-15T01:19:01;98475.81;;;7.65;86.11
34034;BME280;63481;52.588;22.472;2023-03-15T01:19:54;98478.79;;;7.58;85.92
34034;BME280;63481;52.588;22.472;2023-03-15T01:20:47;98483.34;;;7.56;86.06
34034;BME280;63481;52.588;22.472;2023-03-15T01:21:40;98483.64;;;7.61;86.54
34034;BME280;63481;52.588;22.472;2023-03-15T01:22:34;98481.72;;;7.65;86.49
34034;BME280;63481;52.588;22.472;2023-03-15T01:23:28;98479.17;;;7.68;86.35
34034;BME280;63481;52.588;22.472;2023-03-15T01:24:21;98485.89;;;7.69;86.42
34034;BME280;63481;52.588;22.472;2023-03-15T01:25:16;98484.71;;;7.67;86.32
34034;BME280;63481;52.588;22.472;2023-03-15T01:26:13;98484.06;;;7.64;86.12
34034;BME280;63481;52.588;22.472;2023-03-15T01:27:06;98482.71;;;7.62;86.30
34034;BME280;63481;52.588;22.472;2023-03-15T01:27:58;98484.12;;;7.64;86.49
34034;BME280;63481;52.588;22.472;2023-03-15T01:28:52;98486.29;;;7.68;86.56
34034;BME280;63481;52.588;22.472;2023-03-15T01:29:46;98485.48;;;7.70;86.30
34034;BME280;63481;52.588;22.472;2023-03-15T01:30:40;98484.80;;;7.72;86.18
34034;BME280;63481;52.588;22.472;2023-03-15T01:31:33;98488.30;;;7.74;85.94
34034;BME280;63481;52.588;22.472;2023-03-15T01:32:27;98487.29;;;7.76;86.17
34034;BME280;63481;52.588;22.472;2023-03-15T01:33:20;98495.09;;;7.76;86.18
34034;BME280;63481;52.588;22.472;2023-03-15T01:34:14;98492.34;;;7.77;85.94
34034;BME280;63481;52.588;22.472;2023-03-15T01:35:07;98495.33;;;7.80;86.13
34034;BME280;63481;52.588;22.472;2023-03-15T01:36:03;98495.31;;;7.84;86.17
34034;BME280;63481;52.588;22.472;2023-03-15T01:36:56;98498.08;;;7.82;85.98
34034;BME280;63481;52.588;22.472;2023-03-15T01:37:54;98500.00;;;7.86;85.95
34034;BME280;63481;52.588;22.472;2023-03-15T01:38:48;98503.02;;;7.87;85.91
34034;BME280;63481;52.588;22.472;2023-03-15T01:39:43;98499.11;;;7.85;86.08
34034;BME280;63481;52.588;22.472;2023-03-15T01:40:41;98499.95;;;7.85;86.27
34034;BME280;63481;52.588;22.472;2023-03-15T01:41:36;98498.16;;;7.85;86.02
34034;BME280;63481;52.588;22.472;2023-03-15T01:42:29;98502.98;;;7.85;86.00
34034;BME280;63481;52.588;22.472;2023-03-15T01:43:24;98505.52;;;7.87;85.90
34034;BME280;63481;52.588;22.472;2023-03-15T01:44:20;98509.72;;;7.85;85.99
34034;BME280;63481;52.588;22.472;2023-03-15T01:45:53;98505.30;;;7.83;86.00
34034;BME280;63481;52.588;22.472;2023-03-15T01:46:49;98510.15;;;7.76;86.06
34034;BME280;63481;52.588;22.472;2023-03-15T01:47:49;98513.05;;;7.73;86.17
34034;BME280;63481;52.588;22.472;2023-03-15T01:50:08;98516.33;;;7.70;86.55
34034;BME280;63481;52.588;22.472;2023-03-15T01:51:31;98520.82;;;7.72;86.49
34034;BME280;63481;52.588;22.472;2023-03-15T01:52:30;98521.84;;;7.77;86.52
34034;BME280;63481;52.588;22.472;2023-03-15T01:53:28;98521.31;;;7.79;86.65
34034;BME280;63481;52.588;22.472;2023-03-15T01:55:19;98520.05;;;7.87;86.11
34034;BME280;63481;52.588;22.472;2023-03-15T01:56:44;98520.58;;;7.87;86.05
34034;BME280;63481;52.588;22.472;2023-03-15T01:57:49;98523.68;;;7.86;86.19
34034;BME280;63481;52.588;22.472;2023-03-15T01:58:45;98525.53;;;7.88;86.07
34034;BME280;63481;52.588;22.472;2023-03-15T01:59:45;98527.98;;;7.88;86.07
34034;BME280;63481;52.588;22.472;2023-03-15T02:00:39;98525.93;;;7.86;86.06
34034;BME280;63481;52.588;22.472;2023-03-15T02:01:35;98530.10;;;7.83;86.50
34034;BME280;63481;52.588;22.472;2023-03-15T02:02:29;98532.88;;;7.86;86.07
34034;BME280;63481;52.588;22.472;2023-03-15T02:03:29;98534.26;;;7.86;86.31
34034;BME280;63481;52.588;22.472;2023-03-15T02:04:29;98533.36;;;7.89;86.03
34034;BME280;63481;52.588;22.472;2023-03-15T02:05:29;98537.92;;;7.89;85.82
34034;BME280;63481;52.588;22.472;2023-03-15T02:06:24;98538.83;;;7.91;86.20
34034;BME280;63481;52.588;22.472;2023-03-15T02:07:23;98538.91;;;7.90;85.86
34034;BME280;63481;52.588;22.472;2023-03-15T02:08:18;98535.79;;;7.93;85.47
34034;BME280;63481;52.588;22.472;2023-03-15T02:09:14;98538.23;;;7.88;86.34
34034;BME280;63481;52.588;22.472;2023-03-15T02:10:11;98539.11;;;7.89;85.74
34034;BME280;63481;52.588;22.472;2023-03-15T02:11:06;98536.86;;;7.84;86.30
34034;BME280;63481;52.588;22.472;2023-03-15T02:11:59;98542.00;;;7.85;86.16
34034;BME280;63481;52.588;22.472;2023-03-15T02:12:53;98541.45;;;7.83;86.47
34034;BME280;63481;52.588;22.472;2023-03-15T02:13:48;98545.45;;;7.84;86.30
34034;BME280;63481;52.588;22.472;2023-03-15T02:14:41;98544.44;;;7.81;86.60
34034;BME280;63481;52.588;22.472;2023-03-15T02:15:37;98545.91;;;7.81;86.41
34034;BME280;63481;52.588;22.472;2023-03-15T02:16:31;98545.58;;;7.78;86.31
34034;BME280;63481;52.588;22.472;2023-03-15T02:17:34;98544.39;;;7.77;86.56
34034;BME280;63481;52.588;22.472;2023-03-15T02:18:27;98544.28;;;7.74;86.85
34034;BME280;63481;52.588;22.472;2023-03-15T02:20:37;98547.64;;;7.79;86.86
34034;BME280;63481;52.588;22.472;2023-03-15T02:21:41;98554.77;;;7.78;86.72
34034;BME280;63481;52.588;22.472;2023-03-15T02:23:30;98555.45;;;7.78;86.78
34034;BME280;63481;52.588;22.472;2023-03-15T02:24:29;98562.74;;;7.85;86.39
34034;BME280;63481;52.588;22.472;2023-03-15T02:26:39;98565.34;;;7.88;86.60
34034;BME280;63481;52.588;22.472;2023-03-15T02:27:33;98566.14;;;7.88;86.50
34034;BME280;63481;52.588;22.472;2023-03-15T02:28:29;98568.65;;;7.91;86.42
34034;BME280;63481;52.588;22.472;2023-03-15T02:29:24;98569.19;;;7.95;86.56
34034;BME280;63481;52.588;22.472;2023-03-15T02:30:18;98570.87;;;7.95;86.26
34034;BME280;63481;52.588;22.472;2023-03-15T02:31:12;98573.37;;;7.97;86.84
34034;BME280;63481;52.588;22.472;2023-03-15T02:32:06;98578.98;;;7.99;86.21
34034;BME280;63481;52.588;22.472;2023-03-15T02:33:00;98580.58;;;7.99;86.45
34034;BME280;63481;52.588;22.472;2023-03-15T02:33:54;98582.90;;;7.96;86.32
34034;BME280;63481;52.588;22.472;2023-03-15T02:34:47;98583.86;;;7.99;86.61
34034;BME280;63481;52.588;22.472;2023-03-15T02:35:40;98588.00;;;8.01;86.54
34034;BME280;63481;52.588;22.472;2023-03-15T02:36:34;98587.44;;;8.02;86.30
34034;BME280;63481;52.588;22.472;2023-03-15T02:37:27;98591.96;;;8.02;86.55
34034;BME280;63481;52.588;22.472;2023-03-15T02:38:20;98593.59;;;8.03;86.30
34034;BME280;63481;52.588;22.472;2023-03-15T02:39:19;98597.05;;;8.04;86.33
34034;BME280;63481;52.588;22.472;2023-03-15T02:40:20;98595.61;;;8.02;86.45
34034;BME280;63481;52.588;22.472;2023-03-15T02:41:17;98605.28;;;8.02;86.53
34034;BME280;63481;52.588;22.472;2023-03-15T02:42:10;98610.17;;;8.03;86.32
34034;BME280;63481;52.588;22.472;2023-03-15T02:43:07;98621.81;;;8.07;86.27
34034;BME280;63481;52.588;22.472;2023-03-15T02:44:28;98639.56;;;8.10;86.16
34034;BME280;63481;52.588;22.472;2023-03-15T02:45:22;98688.71;;;7.67;83.14
34034;BME280;63481;52.588;22.472;2023-03-15T02:46:17;98711.88;;;6.72;82.82
34034;BME280;63481;52.588;22.472;2023-03-15T02:47:15;98708.32;;;5.98;83.41
34034;BME280;63481;52.588;22.472;2023-03-15T02:48:10;98716.63;;;5.73;84.31
34034;BME280;63481;52.588;22.472;2023-03-15T02:49:04;98739.35;;;5.36;83.37
34034;BME280;63481;52.588;22.472;2023-03-15T02:49:59;98737.55;;;4.97;82.77
34034;BME280;63481;52.588;22.472;2023-03-15T02:50:52;98740.84;;;4.64;82.87
34034;BME280;63481;52.588;22.472;2023-03-15T02:51:44;98741.06;;;4.40;82.67
34034;BME280;63481;52.588;22.472;2023-03-15T02:52:37;98789.45;;;4.19;82.89
34034;BME280;63481;52.588;22.472;2023-03-15T02:53:30;98780.61;;;4.06;82.86
34034;BME280;63481;52.588;22.472;2023-03-15T02:54:23;98768.85;;;3.86;83.24
34034;BME280;63481;52.588;22.472;2023-03-15T02:55:18;98791.49;;;3.86;83.49
34034;BME280;63481;52.588;22.472;2023-03-15T02:56:11;98792.86;;;3.79;83.43
34034;BME280;63481;52.588;22.472;2023-03-15T02:57:06;98797.23;;;3.68;83.25
34034;BME280;63481;52.588;22.472;2023-03-15T02:58:00;98802.80;;;3.71;83.80
34034;BME280;63481;52.588;22.472;2023-03-15T02:58:53;98803.70;;;3.62;83.82
34034;BME280;63481;52.588;22.472;2023-03-15T02:59:45;98832.45;;;3.58;83.15
34034;BME280;63481;52.588;22.472;2023-03-15T03:00:42;98822.83;;;3.56;83.20
34034;BME280;63481;52.588;22.472;2023-03-15T03:01:34;98804.56;;;3.52;83.14
34034;BME280;63481;52.588;22.472;2023-03-15T03:02:30;98830.48;;;3.46;83.15
34034;BME280;63481;52.588;22.472;2023-03-15T03:03:23;98821.52;;;3.40;83.43
34034;BME280;63481;52.588;22.472;2023-03-15T03:04:16;98829.38;;;3.37;83.35
34034;BME280;63481;52.588;22.472;2023-03-15T03:05:10;98831.46;;;3.32;83.51
34034;BME280;63481;52.588;22.472;2023-03-15T03:06:03;98841.22;;;3.31;83.10
34034;BME280;63481;52.588;22.472;2023-03-15T03:06:56;98828.35;;;3.27;83.53
34034;BME280;63481;52.588;22.472;2023-03-15T03:07:50;98826.82;;;3.28;83.97
34034;BME280;63481;52.588;22.472;2023-03-15T03:08:43;98846.44;;;3.28;83.91
34034;BME280;63481;52.588;22.472;2023-03-15T03:09:38;98857.06;;;3.24;83.82
34034;BME280;63481;52.588;22.472;2023-03-15T03:10:32;98873.98;;;3.26;83.81
34034;BME280;63481;52.588;22.472;2023-03-15T03:11:26;98889.04;;;3.25;84.12
34034;BME280;63481;52.588;22.472;2023-03-15T03:12:21;98884.70;;;3.29;84.97
34034;BME280;63481;52.588;22.472;2023-03-15T03:13:13;98897.88;;;3.30;85.03
34034;BME280;63481;52.588;22.472;2023-03-15T03:14:06;98885.73;;;3.25;84.84
34034;BME280;63481;52.588;22.472;2023-03-15T03:14:59;98888.52;;;3.22;85.72
34034;BME280;63481;52.588;22.472;2023-03-15T03:15:54;98900.23;;;3.20;86.08
34034;BME280;63481;52.588;22.472;2023-03-15T03:16:51;98911.38;;;3.21;86.52
34034;BME280;63481;52.588;22.472;2023-03-15T03:17:44;98908.41;;;3.18;87.16
34034;BME280;63481;52.588;22.472;2023-03-15T03:18:38;98916.98;;;3.10;87.25
34034;BME280;63481;52.588;22.472;2023-03-15T03:19:31;98926.19;;;3.01;87.45
34034;BME280;63481;52.588;22.472;2023-03-15T03:20:24;98921.98;;;2.96;87.90
34034;BME280;63481;52.588;22.472;2023-03-15T03:21:16;98919.46;;;2.86;88.51
34034;BME280;63481;52.588;22.472;2023-03-15T03:22:09;98918.50;;;2.75;88.88
34034;BME280;63481;52.588;22.472;2023-03-15T03:23:05;98931.24;;;2.73;89.16
34034;BME280;63481;52.588;22.472;2023-03-15T03:23:58;98934.69;;;2.63;89.54
34034;BME280;63481;52.588;22.472;2023-03-15T03:24:50;98940.44;;;2.60;89.57
34034;BME280;63481;52.588;22.472;2023-03-15T03:25:43;98946.41;;;2.54;89.70
34034;BME280;63481;52.588;22.472;2023-03-15T03:26:37;98952.06;;;2.49;89.99
34034;BME280;63481;52.588;22.472;2023-03-15T03:27:30;98960.64;;;2.49;90.67
34034;BME280;63481;52.588;22.472;2023-03-15T03:28:26;98966.10;;;2.45;91.26
34034;BME280;63481;52.588;22.472;2023-03-15T03:29:19;98977.30;;;2.47;91.88
34034;BME280;63481;52.588;22.472;2023-03-15T03:30:13;98983.52;;;2.47;92.49
34034;BME280;63481;52.588;22.472;2023-03-15T03:31:16;98989.30;;;2.45;92.30
34034;BME280;63481;52.588;22.472;2023-03-15T03:32:10;98997.67;;;2.37;92.76
34034;BME280;63481;52.588;22.472;2023-03-15T03:33:03;98994.95;;;2.34;92.86
34034;BME280;63481;52.588;22.472;2023-03-15T03:33:56;98992.48;;;2.36;93.36
34034;BME280;63481;52.588;22.472;2023-03-15T03:34:49;98989.25;;;2.33;93.20
34034;BME280;63481;52.588;22.472;2023-03-15T03:35:44;99001.68;;;2.28;93.60
34034;BME280;63481;52.588;22.472;2023-03-15T03:36:37;98990.49;;;2.20;93.77
34034;BME280;63481;52.588;22.472;2023-03-15T03:37:30;98985.98;;;2.17;94.16
34034;BME280;63481;52.588;22.472;2023-03-15T03:38:26;98997.23;;;2.12;94.42
34034;BME280;63481;52.588;22.472;2023-03-15T03:39:21;98987.92;;;2.10;94.50
34034;BME280;63481;52.588;22.472;2023-03-15T03:40:14;98992.58;;;2.09;94.50
34034;BME280;63481;52.588;22.472;2023-03-15T03:41:08;98998.39;;;2.04;94.58
34034;BME280;63481;52.588;22.472;2023-03-15T03:42:01;98995.64;;;2.01;95.07
34034;BME280;63481;52.588;22.472;2023-03-15T03:58:59;99062.94;;;1.85;96.25
34034;BME280;63481;52.588;22.472;2023-03-15T04:00:04;99073.98;;;1.79;95.56
34034;BME280;63481;52.588;22.472;2023-03-15T04:01:07;99083.56;;;1.76;95.43
34034;BME280;63481;52.588;22.472;2023-03-15T04:02:00;99075.02;;;1.76;95.43
34034;BME280;63481;52.588;22.472;2023-03-15T04:02:53;99081.48;;;1.74;95.22
34034;BME280;63481;52.588;22.472;2023-03-15T04:03:47;99079.66;;;1.75;95.11
34034;BME280;63481;52.588;22.472;2023-03-15T04:04:44;99079.23;;;1.76;95.12
34034;BME280;63481;52.588;22.472;2023-03-15T04:05:43;99078.98;;;1.75;95.02
34034;BME280;63481;52.588;22.472;2023-03-15T04:06:41;99090.80;;;1.74;95.11
34034;BME280;63481;52.588;22.472;2023-03-15T04:07:38;99099.40;;;1.76;94.91
34034;BME280;63481;52.588;22.472;2023-03-15T04:08:32;99099.27;;;1.74;94.53
34034;BME280;63481;52.588;22.472;2023-03-15T04:09:25;99106.95;;;1.72;94.03
34034;BME280;63481;52.588;22.472;2023-03-15T04:10:20;99098.74;;;1.72;93.39
34034;BME280;63481;52.588;22.472;2023-03-15T04:11:18;99098.64;;;1.71;93.28
34034;BME280;63481;52.588;22.472;2023-03-15T04:12:17;99094.84;;;1.71;93.22
34034;BME280;63481;52.588;22.472;2023-03-15T04:13:12;99096.13;;;1.71;93.23
34034;BME280;63481;52.588;22.472;2023-03-15T04:14:05;99096.92;;;1.70;93.07
34034;BME280;63481;52.588;22.472;2023-03-15T04:14:59;99104.71;;;1.69;93.04
34034;BME280;63481;52.588;22.472;2023-03-15T04:15:55;99099.73;;;1.68;93.24
34034;BME280;63481;52.588;22.472;2023-03-15T04:16:52;99106.98;;;1.65;93.23
34034;BME280;63481;52.588;22.472;2023-03-15T04:17:46;99103.09;;;1.64;93.10
34034;BME280;63481;52.588;22.472;2023-03-15T04:18:40;99107.45;;;1.63;93.19
34034;BME280;63481;52.588;22.472;2023-03-15T04:19:33;99115.85;;;1.61;93.29
34034;BME280;63481;52.588;22.472;2023-03-15T04:20:27;99112.45;;;1.61;92.90
34034;BME280;63481;52.588;22.472;2023-03-15T04:21:20;99115.32;;;1.61;93.06
34034;BME280;63481;52.588;22.472;2023-03-15T04:22:15;99115.89;;;1.60;93.47
34034;BME280;63481;52.588;22.472;2023-03-15T04:23:27;99110.93;;;1.59;93.09
34034;BME280;63481;52.588;22.472;2023-03-15T04:24:41;99104.84;;;1.59;92.79
34034;BME280;63481;52.588;22.472;2023-03-15T04:25:50;99110.88;;;1.58;92.71
34034;BME280;63481;52.588;22.472;2023-03-15T04:27:15;99105.09;;;1.59;92.90
34034;BME280;63481;52.588;22.472;2023-03-15T04:28:34;99107.91;;;1.60;92.82
34034;BME280;63481;52.588;22.472;2023-03-15T04:29:56;99117.08;;;1.59;92.58
34034;BME280;63481;52.588;22.472;2023-03-15T04:30:52;99125.45;;;1.60;92.29
34034;BME280;63481;52.588;22.472;2023-03-15T04:32:10;99115.36;;;1.61;91.33
34034;BME280;63481;52.588;22.472;2023-03-15T04:33:27;99121.13;;;1.58;91.82
34034;BME280;63481;52.588;22.472;2023-03-15T04:34:49;99130.67;;;1.57;92.16
34034;BME280;63481;52.588;22.472;2023-03-15T04:36:01;99134.85;;;1.56;92.26
34034;BME280;63481;52.588;22.472;2023-03-15T04:37:14;99146.02;;;1.55;92.16
34034;BME280;63481;52.588;22.472;2023-03-15T04:38:22;99145.55;;;1.55;92.25
34034;BME280;63481;52.588;22.472;2023-03-15T04:39:28;99149.30;;;1.55;92.54
34034;BME280;63481;52.588;22.472;2023-03-15T04:40:47;99148.20;;;1.57;92.88
34034;BME280;63481;52.588;22.472;2023-03-15T04:41:59;99141.02;;;1.56;92.77
34034;BME280;63481;52.588;22.472;2023-03-15T04:42:58;99139.98;;;1.54;92.29
34034;BME280;63481;52.588;22.472;2023-03-15T04:44:17;99148.52;;;1.53;92.46
34034;BME280;63481;52.588;22.472;2023-03-15T04:45:30;99152.98;;;1.55;92.86
34034;BME280;63481;52.588;22.472;2023-03-15T04:46:46;99161.24;;;1.56;93.13
34034;BME280;63481;52.588;22.472;2023-03-15T04:47:45;99172.92;;;1.57;93.25
34034;BME280;63481;52.588;22.472;2023-03-15T04:48:54;99168.38;;;1.55;92.98
34034;BME280;63481;52.588;22.472;2023-03-15T04:49:53;99176.05;;;1.52;92.83
34034;BME280;63481;52.588;22.472;2023-03-15T04:50:52;99174.05;;;1.53;93.07
34034;BME280;63481;52.588;22.472;2023-03-15T04:52:00;99182.02;;;1.52;93.06
34034;BME280;63481;52.588;22.472;2023-03-15T04:53:05;99180.40;;;1.51;92.58
34034;BME280;63481;52.588;22.472;2023-03-15T04:54:11;99186.15;;;1.53;92.74
34034;BME280;63481;52.588;22.472;2023-03-15T04:55:27;99193.52;;;1.56;92.95
34034;BME280;63481;52.588;22.472;2023-03-15T04:56:32;99194.80;;;1.57;92.79
34034;BME280;63481;52.588;22.472;2023-03-15T04:57:54;99200.72;;;1.57;92.88
34034;BME280;63481;52.588;22.472;2023-03-15T04:59:14;99207.58;;;1.57;92.86
34034;BME280;63481;52.588;22.472;2023-03-15T05:00:36;99208.88;;;1.59;92.83
34034;BME280;63481;52.588;22.472;2023-03-15T05:01:56;99210.92;;;1.61;92.77
34034;BME280;63481;52.588;22.472;2023-03-15T05:03:01;99212.99;;;1.63;92.81
34034;BME280;63481;52.588;22.472;2023-03-15T05:04:09;99212.02;;;1.62;92.64
34034;BME280;63481;52.588;22.472;2023-03-15T05:05:40;99210.90;;;1.60;92.59
34034;BME280;63481;52.588;22.472;2023-03-15T05:06:59;99212.82;;;1.65;92.64
34034;BME280;63481;52.588;22.472;2023-03-15T05:08:07;99211.85;;;1.65;92.57
34034;BME280;63481;52.588;22.472;2023-03-15T05:09:15;99213.21;;;1.64;92.48
34034;BME280;63481;52.588;22.472;2023-03-15T05:10:28;99214.93;;;1.63;92.33
34034;BME280;63481;52.588;22.472;2023-03-15T05:11:54;99222.55;;;1.67;92.03
34034;BME280;63481;52.588;22.472;2023-03-15T05:13:06;99209.86;;;1.64;91.95
34034;BME280;63481;52.588;22.472;2023-03-15T05:14:17;99214.03;;;1.59;91.73
34034;BME280;63481;52.588;22.472;2023-03-15T05:15:22;99211.64;;;1.58;91.71
34034;BME280;63481;52.588;22.472;2023-03-15T05:16:25;99219.00;;;1.58;92.04
34034;BME280;63481;52.588;22.472;2023-03-15T05:17:22;99226.25;;;1.59;92.16
34034;BME280;63481;52.588;22.472;2023-03-15T05:18:27;99224.96;;;1.58;91.76
34034;BME280;63481;52.588;22.472;2023-03-15T05:19:39;99230.15;;;1.59;91.75
34034;BME280;63481;52.588;22.472;2023-03-15T05:20:52;99241.30;;;1.58;91.94
34034;BME280;63481;52.588;22.472;2023-03-15T05:22:07;99252.77;;;1.55;91.54
34034;BME280;63481;52.588;22.472;2023-03-15T05:23:08;99256.98;;;1.55;91.52
34034;BME280;63481;52.588;22.472;2023-03-15T05:24:11;99259.59;;;1.54;91.42
34034;BME280;63481;52.588;22.472;2023-03-15T05:25:19;99259.65;;;1.53;91.30
34034;BME280;63481;52.588;22.472;2023-03-15T05:26:30;99256.97;;;1.52;91.54
34034;BME280;63481;52.588;22.472;2023-03-15T05:27:44;99256.48;;;1.54;91.14
34034;BME280;63481;52.588;22.472;2023-03-15T05:28:52;99255.77;;;1.55;91.65